Time;durP1;ratioP1;P1;durP2;ratioP2;P2;SDS_P1;SDS_P2;PMS_P1;PMS_P2;Temp;Humidity;BMP_temperature;BMP_pressure;BME280_temperature;BME280_humidity;BME280_pressure;Samples;Min_cycle;Max_cycle;Signal;HPM_P1;HPM_P2
2022/07/19 00:00:09;;;;;;;3.42;1.90;;;17.50;99.90;;;;;;4824606;29;20082;-85
2022/07/19 00:02:36;;;;;;;3.63;1.75;;;17.50;99.90;;;;;;4830415;29;20082;-84
2022/07/19 00:05:02;;;;;;;3.47;1.83;;;17.50;99.90;;;;;;4828464;29;20051;-85
2022/07/19 00:07:27;;;;;;;5.78;2.20;;;17.50;99.90;;;;;;4825490;29;20061;-85
2022/07/19 00:09:53;;;;;;;3.78;2.03;;;17.50;99.90;;;;;;4827083;29;20042;-84
2022/07/19 00:12:19;;;;;;;3.95;2.03;;;17.40;99.90;;;;;;4826467;29;20089;-85
2022/07/19 00:14:44;;;;;;;3.40;1.88;;;17.40;99.90;;;;;;4825754;29;20047;-85
2022/07/19 00:17:10;;;;;;;2.75;1.80;;;17.40;99.90;;;;;;4826032;29;20453;-85
2022/07/19 00:19:36;;;;;;;4.15;1.95;;;17.40;99.90;;;;;;4827104;29;20081;-85
2022/07/19 00:22:01;;;;;;;4.60;2.10;;;17.30;99.90;;;;;;4825720;29;20057;-85
2022/07/19 00:24:27;;;;;;;4.07;1.90;;;17.40;99.90;;;;;;4826380;29;20053;-85
2022/07/19 00:26:53;;;;;;;4.07;2.03;;;17.30;99.90;;;;;;4827359;29;20492;-85
2022/07/19 00:29:19;;;;;;;3.15;1.80;;;17.30;99.90;;;;;;4826820;29;20041;-85
2022/07/19 00:31:44;;;;;;;3.15;1.60;;;17.30;99.90;;;;;;4839460;29;20050;-85
2022/07/19 00:34:10;;;;;;;3.38;1.83;;;17.30;99.90;;;;;;4838450;29;20053;-85
2022/07/19 00:36:36;;;;;;;4.32;2.13;;;17.20;99.90;;;;;;4839311;29;20050;-85
2022/07/19 00:39:02;;;;;;;3.72;2.28;;;17.20;99.90;;;;;;4838273;29;20049;-85
2022/07/19 00:41:27;;;;;;;5.13;2.13;;;17.20;99.90;;;;;;4834442;29;20097;-85
2022/07/19 00:43:53;;;;;;;4.13;2.20;;;17.10;99.90;;;;;;4810175;29;20078;-85
2022/07/19 00:46:21;;;;;;;3.70;2.08;;;17.30;99.90;;;;;;4828617;29;20050;-85
2022/07/19 00:48:48;;;;;;;4.32;2.33;;;17.20;99.90;;;;;;4834340;29;20042;-85
2022/07/19 00:51:16;;;;;;;3.22;2.13;;;17.10;99.90;;;;;;4826042;29;20094;-85
2022/07/19 00:53:43;;;;;;;4.50;2.00;;;17.10;99.90;;;;;;4833242;29;20065;-85
2022/07/19 00:56:10;;;;;;;3.75;1.90;;;17.10;99.90;;;;;;4824474;29;20125;-85
2022/07/19 00:58:38;;;;;;;2.90;1.80;;;17.10;99.90;;;;;;4840185;29;20472;-85
2022/07/19 01:01:05;;;;;;;4.72;2.00;;;17.10;99.90;;;;;;4831874;29;20101;-85
2022/07/19 01:03:35;;;;;;;5.07;2.05;;;17.10;99.90;;;;;;4826036;29;20093;-85
2022/07/19 01:06:01;;;;;;;4.65;2.17;;;17.10;99.90;;;;;;4825850;29;20046;-85
2022/07/19 01:08:27;;;;;;;4.03;1.73;;;17.10;99.90;;;;;;4834484;29;20045;-85
2022/07/19 01:10:53;;;;;;;3.97;2.10;;;17.10;99.90;;;;;;4839611;29;20572;-85
2022/07/19 01:13:19;;;;;;;4.95;1.95;;;16.90;99.90;;;;;;4823973;29;20042;-85
2022/07/19 01:15:45;;;;;;;3.05;1.83;;;17.00;99.90;;;;;;4831244;29;20051;-85
2022/07/19 01:18:10;;;;;;;3.67;1.90;;;17.00;99.90;;;;;;4836575;29;20041;-85
2022/07/19 01:20:36;;;;;;;3.15;1.80;;;17.00;99.90;;;;;;4824664;29;20069;-85
2022/07/19 01:23:02;;;;;;;4.18;2.10;;;17.00;99.90;;;;;;4825619;29;20137;-85
2022/07/19 01:25:33;;;;;;;3.17;1.85;;;16.90;99.90;;;;;;4824271;29;20416;-85
2022/07/19 01:28:00;;;;;;;3.70;2.10;;;16.90;99.90;;;;;;4828858;29;20050;-85
2022/07/19 01:30:27;;;;;;;4.40;2.22;;;16.90;99.90;;;;;;4824932;29;20577;-85
2022/07/19 01:32:54;;;;;;;4.07;2.13;;;16.90;99.90;;;;;;4825663;29;20456;-86
2022/07/19 01:35:20;;;;;;;4.70;2.58;;;16.90;99.90;;;;;;4824604;29;20400;-85
2022/07/19 01:37:46;;;;;;;3.75;1.83;;;16.80;99.90;;;;;;4825197;29;20050;-85
2022/07/19 01:40:14;;;;;;;3.88;2.08;;;16.80;99.90;;;;;;4825772;29;20122;-85
2022/07/19 01:42:40;;;;;;;4.63;1.92;;;16.70;99.90;;;;;;4825304;29;20046;-85
2022/07/19 01:45:08;;;;;;;3.60;2.03;;;16.70;99.90;;;;;;4825177;29;20106;-85
2022/07/19 01:47:35;;;;;;;3.30;1.95;;;16.70;99.90;;;;;;4834588;29;20045;-85
2022/07/19 01:50:01;;;;;;;4.15;1.90;;;16.70;99.90;;;;;;4831042;29;20039;-85
2022/07/19 01:52:27;;;;;;;3.65;2.20;;;16.70;99.90;;;;;;4828263;29;20078;-85
2022/07/19 01:54:53;;;;;;;6.07;2.42;;;16.10;99.90;;;;;;4830547;29;20074;-85
2022/07/19 01:57:19;;;;;;;3.42;2.00;;;16.60;99.90;;;;;;4825351;29;20038;-86
2022/07/19 01:59:44;;;;;;;3.45;2.22;;;16.60;99.90;;;;;;4824939;29;20057;-85
2022/07/19 02:02:10;;;;;;;4.80;2.40;;;16.60;99.90;;;;;;4824874;29;20043;-85
2022/07/19 02:04:36;;;;;;;3.72;1.83;;;16.60;99.90;;;;;;4823504;29;20144;-85
2022/07/19 02:07:02;;;;;;;4.50;1.75;;;16.60;99.90;;;;;;4824484;29;20046;-85
2022/07/19 02:09:28;;;;;;;3.53;1.77;;;16.60;99.90;;;;;;4824860;29;20381;-85
2022/07/19 02:11:54;;;;;;;4.50;2.17;;;16.60;99.90;;;;;;4825656;29;20062;-85
2022/07/19 02:14:19;;;;;;;4.85;2.25;;;16.50;99.90;;;;;;4832687;29;20407;-86
2022/07/19 02:16:45;;;;;;;2.97;1.80;;;16.60;99.90;;;;;;4832431;29;20586;-85
2022/07/19 02:19:11;;;;;;;2.83;2.00;;;16.50;99.90;;;;;;4823430;29;20385;-85
2022/07/19 02:21:38;;;;;;;5.20;2.50;;;16.50;99.90;;;;;;4823811;29;20045;-85
2022/07/19 02:24:05;;;;;;;3.33;1.80;;;16.50;99.90;;;;;;4808304;29;20056;-85
2022/07/19 02:26:31;;;;;;;3.92;2.05;;;16.50;99.90;;;;;;4823826;29;20042;-85
2022/07/19 02:28:57;;;;;;;4.55;1.98;;;16.50;99.90;;;;;;4824652;29;20050;-85
2022/07/19 02:31:23;;;;;;;3.97;2.03;;;16.40;99.90;;;;;;4823670;29;20146;-85
2022/07/19 02:33:49;;;;;;;3.42;1.98;;;16.70;99.90;;;;;;4824464;29;20384;-85
2022/07/19 02:36:16;;;;;;;3.05;1.77;;;17.00;99.90;;;;;;4824454;29;20111;-85
2022/07/19 02:38:42;;;;;;;5.80;1.73;;;16.40;99.90;;;;;;4823281;29;20127;-85
2022/07/19 02:41:08;;;;;;;3.10;1.73;;;16.50;99.90;;;;;;4823763;29;20043;-85
2022/07/19 02:43:34;;;;;;;3.25;1.83;;;16.30;99.90;;;;;;4828224;29;20049;-85
2022/07/19 02:45:59;;;;;;;4.82;1.92;;;16.40;99.90;;;;;;4831670;29;20057;-85
2022/07/19 02:48:25;;;;;;;4.00;2.17;;;16.40;99.90;;;;;;4824310;29;20057;-86
2022/07/19 02:50:51;;;;;;;2.65;1.90;;;16.30;99.90;;;;;;4824668;29;20058;-85
2022/07/19 02:53:16;;;;;;;3.58;2.00;;;16.30;99.90;;;;;;4824512;29;20047;-85
2022/07/19 02:55:42;;;;;;;5.95;2.60;;;16.40;99.90;;;;;;4824188;29;20096;-85
2022/07/19 02:58:08;;;;;;;4.60;1.85;;;16.30;99.90;;;;;;4825488;29;20413;-85
2022/07/19 03:00:33;;;;;;;3.72;1.90;;;16.30;99.90;;;;;;4828982;29;20115;-85
2022/07/19 03:03:43;;;;;;;3.05;1.98;;;16.30;99.90;;;;;;4824184;29;20050;-85
2022/07/19 03:05:47;;;;;;;4.03;2.17;;;16.30;99.90;;;;;;4823774;29;20503;-86
2022/07/19 03:08:12;;;;;;;3.28;1.83;;;16.40;99.90;;;;;;4824005;29;20082;-85
2022/07/19 03:10:38;;;;;;;3.92;2.13;;;16.20;99.90;;;;;;4823345;29;20142;-85
2022/07/19 03:13:04;;;;;;;4.72;2.35;;;16.30;99.90;;;;;;4824335;29;20488;-85
2022/07/19 03:15:30;;;;;;;4.15;1.90;;;16.20;99.90;;;;;;4823981;29;20119;-85
2022/07/19 03:17:56;;;;;;;3.67;2.15;;;16.20;99.90;;;;;;4835380;29;20106;-85
2022/07/19 03:20:22;;;;;;;5.20;2.53;;;16.20;99.90;;;;;;4830930;29;20038;-85
2022/07/19 03:22:48;;;;;;;4.65;2.15;;;16.20;99.90;;;;;;4822850;29;20061;-85
2022/07/19 03:25:13;;;;;;;2.97;1.92;;;16.20;99.90;;;;;;4822529;29;20054;-85
2022/07/19 03:27:39;;;;;;;4.97;1.90;;;16.40;99.90;;;;;;4823642;29;20047;-85
2022/07/19 03:30:06;;;;;;;3.17;2.08;;;16.10;99.90;;;;;;4824043;29;20130;-85
2022/07/19 03:32:32;;;;;;;3.35;2.17;;;16.10;99.90;;;;;;4822754;29;20111;-85
2022/07/19 03:34:57;;;;;;;3.45;1.85;;;16.30;99.90;;;;;;4823741;29;20047;-85
2022/07/19 03:37:23;;;;;;;5.10;2.22;;;16.20;99.90;;;;;;4823243;29;20110;-85
2022/07/19 03:39:49;;;;;;;4.68;2.28;;;16.00;99.90;;;;;;4822187;29;20400;-85
2022/07/19 03:42:15;;;;;;;5.22;2.60;;;16.20;99.90;;;;;;4822656;29;20110;-85
2022/07/19 03:44:40;;;;;;;3.85;2.05;;;16.00;99.90;;;;;;4823762;29;20042;-86
2022/07/19 03:47:06;;;;;;;3.65;2.15;;;16.00;99.90;;;;;;4822359;29;20054;-85
2022/07/19 03:49:32;;;;;;;3.30;2.03;;;16.00;99.90;;;;;;4823753;29;20043;-86
2022/07/19 03:51:57;;;;;;;3.60;2.03;;;16.10;99.90;;;;;;4829733;29;20503;-86
2022/07/19 03:54:23;;;;;;;3.78;2.13;;;16.40;99.90;;;;;;4815103;29;20133;-85
2022/07/19 03:56:49;;;;;;;4.40;2.33;;;16.00;99.90;;;;;;4822304;29;20057;-85
2022/07/19 03:59:14;;;;;;;3.55;2.20;;;16.00;99.90;;;;;;4831817;29;20038;-85
2022/07/19 04:01:40;;;;;;;5.35;2.00;;;16.00;99.90;;;;;;4834817;29;20050;-85
2022/07/19 04:04:06;;;;;;;3.83;2.10;;;16.00;99.90;;;;;;4824040;29;20062;-85
2022/07/19 04:06:32;;;;;;;3.35;1.83;;;15.90;99.90;;;;;;4823498;29;20065;-85
2022/07/19 04:08:58;;;;;;;3.20;1.73;;;16.00;99.90;;;;;;4821914;29;20051;-85
2022/07/19 04:11:24;;;;;;;2.75;1.50;;;16.00;99.90;;;;;;4822525;29;20054;-86
2022/07/19 04:13:50;;;;;;;5.35;2.20;;;16.00;99.90;;;;;;4823262;29;20133;-85
2022/07/19 04:16:15;;;;;;;3.03;1.88;;;16.10;99.90;;;;;;4821708;29;20107;-85
2022/07/19 04:18:41;;;;;;;3.53;1.70;;;16.20;99.90;;;;;;4822196;29;20050;-85
2022/07/19 04:21:08;;;;;;;3.08;1.80;;;16.10;99.90;;;;;;4822587;29;20054;-85
2022/07/19 04:23:33;;;;;;;3.00;1.45;;;16.10;99.90;;;;;;4823021;29;20400;-85
2022/07/19 04:25:59;;;;;;;4.80;2.20;;;15.90;99.90;;;;;;4822143;29;20054;-85
2022/07/19 04:28:25;;;;;;;3.30;1.85;;;16.10;99.90;;;;;;4821755;29;20118;-85
2022/07/19 04:30:51;;;;;;;3.25;1.40;;;16.20;99.90;;;;;;4822007;29;20051;-86
2022/07/19 04:33:18;;;;;;;3.22;1.48;;;16.20;99.90;;;;;;4823209;29;20123;-85
2022/07/19 04:35:44;;;;;;;3.35;1.63;;;16.30;99.90;;;;;;4828914;29;20045;-86
2022/07/19 04:38:10;;;;;;;2.88;1.45;;;16.30;99.90;;;;;;4821629;29;20046;-85
2022/07/19 04:40:36;;;;;;;3.20;1.67;;;16.30;99.90;;;;;;4824349;29;20373;-85
2022/07/19 04:43:02;;;;;;;2.92;1.52;;;16.40;99.90;;;;;;4821681;29;20053;-87
2022/07/19 04:45:28;;;;;;;2.15;1.20;;;16.40;99.90;;;;;;4821838;29;20055;-85
2022/07/19 04:47:54;;;;;;;4.03;1.50;;;16.40;99.90;;;;;;4821893;29;20043;-86
2022/07/19 04:50:20;;;;;;;3.10;1.60;;;16.50;99.90;;;;;;4824575;29;20488;-87
2022/07/19 04:52:46;;;;;;;2.88;1.60;;;16.50;99.90;;;;;;4826529;29;20065;-86
2022/07/19 04:55:11;;;;;;;2.53;1.40;;;16.70;99.90;;;;;;4828766;29;20412;-87
2022/07/19 04:57:37;;;;;;;3.58;1.70;;;16.70;99.90;;;;;;4833583;29;20103;-86
2022/07/19 05:00:11;;;;;;;1.65;1.10;;;16.80;99.90;;;;;;4825962;29;20042;-86
2022/07/19 05:02:37;;;;;;;2.90;1.70;;;16.80;99.90;;;;;;4825103;29;20446;-86
2022/07/19 05:05:04;;;;;;;2.08;1.08;;;16.90;99.90;;;;;;4824751;29;20107;-85
2022/07/19 05:07:30;;;;;;;2.38;1.40;;;17.00;99.90;;;;;;4825068;29;20058;-86
2022/07/19 05:09:56;;;;;;;3.03;1.17;;;17.10;99.90;;;;;;4824741;29;20060;-86
2022/07/19 05:12:22;;;;;;;2.50;1.05;;;17.10;99.90;;;;;;4825690;29;20050;-86
2022/07/19 05:14:48;;;;;;;2.38;1.40;;;17.20;99.90;;;;;;4830286;29;20560;-86
2022/07/19 05:17:14;;;;;;;2.53;1.20;;;17.30;99.90;;;;;;4830215;29;20129;-86
2022/07/19 05:19:40;;;;;;;2.47;1.27;;;17.40;99.90;;;;;;4825588;29;20392;-85
2022/07/19 05:22:06;;;;;;;3.85;1.30;;;17.60;99.90;;;;;;4825740;29;20054;-85
2022/07/19 05:24:32;;;;;;;2.22;1.30;;;17.60;99.90;;;;;;4824390;29;20171;-85
2022/07/19 05:26:57;;;;;;;2.53;1.20;;;18.10;99.90;;;;;;4834959;29;20402;-86
2022/07/19 05:29:23;;;;;;;1.90;1.02;;;17.80;99.90;;;;;;4834310;29;20141;-85
2022/07/19 05:31:49;;;;;;;3.20;1.38;;;17.90;99.90;;;;;;4833658;29;20069;-86
2022/07/19 05:34:15;;;;;;;1.63;1.02;;;18.00;99.90;;;;;;4825511;29;20515;-85
2022/07/19 05:36:41;;;;;;;2.63;1.23;;;18.10;99.90;;;;;;4823847;29;20073;-85
2022/07/19 05:39:07;;;;;;;3.38;1.35;;;18.20;99.90;;;;;;4826042;29;20046;-85
2022/07/19 05:41:33;;;;;;;2.38;1.27;;;18.30;99.90;;;;;;4825347;29;20054;-86
2022/07/19 05:43:58;;;;;;;2.35;1.00;;;18.40;99.90;;;;;;4825008;29;20054;-85
2022/07/19 05:46:24;;;;;;;3.35;1.30;;;18.50;99.90;;;;;;4825312;29;20484;-86
2022/07/19 05:48:50;;;;;;;2.40;1.23;;;18.50;99.90;;;;;;4834988;29;20049;-85
2022/07/19 05:51:16;;;;;;;1.80;1.20;;;18.60;99.90;;;;;;4825326;29;20061;-86
2022/07/19 05:53:43;;;;;;;4.03;1.48;;;18.70;99.90;;;;;;4825253;29;20046;-85
2022/07/19 05:56:09;;;;;;;3.13;1.23;;;18.80;99.90;;;;;;4824595;29;20045;-86
2022/07/19 05:58:34;;;;;;;2.33;1.15;;;19.00;99.90;;;;;;4824505;29;20503;-86
2022/07/19 06:01:21;;;;;;;2.58;1.10;;;19.10;99.90;;;;;;4823532;29;20049;-86
2022/07/19 06:03:50;;;;;;;2.75;1.25;;;19.20;99.90;;;;;;4823922;29;20102;-84
2022/07/19 06:06:17;;;;;;;2.30;1.00;;;19.30;99.90;;;;;;4808647;29;20117;-85
2022/07/19 06:08:43;;;;;;;1.88;1.08;;;19.50;99.90;;;;;;4828721;29;20134;-85
2022/07/19 06:11:09;;;;;;;3.17;1.30;;;19.50;99.90;;;;;;4830308;29;20050;-85
2022/07/19 06:13:35;;;;;;;2.20;1.08;;;19.70;99.90;;;;;;4824752;29;20050;-86
2022/07/19 06:16:02;;;;;;;3.63;1.10;;;19.80;99.90;;;;;;4826511;29;20396;-86
2022/07/19 06:18:33;;;;;;;1.95;1.10;;;20.00;99.90;;;;;;4825237;29;20065;-86
2022/07/19 06:21:09;;;;;;;2.45;1.20;;;20.10;99.90;;;;;;4824448;29;20122;-87
2022/07/19 06:23:36;;;;;;;2.05;1.35;;;20.30;99.90;;;;;;4834474;29;20436;-85
2022/07/19 06:26:03;;;;;;;1.80;1.00;;;20.40;99.90;;;;;;4825070;29;20054;-86
2022/07/19 06:28:29;;;;;;;3.08;0.95;;;20.60;99.90;;;;;;4824309;29;20447;-87
2022/07/19 06:30:54;;;;;;;1.45;0.95;;;20.80;99.90;;;;;;4824221;29;20141;-86
2022/07/19 06:33:20;;;;;;;2.42;1.00;;;20.90;99.90;;;;;;4824765;29;20050;-86
2022/07/19 06:35:46;;;;;;;1.95;1.10;;;21.10;99.90;;;;;;4823312;29;20129;-85
2022/07/19 06:38:12;;;;;;;1.70;0.80;;;21.20;99.90;;;;;;4827805;29;20065;-86
2022/07/19 06:40:38;;;;;;;1.65;0.90;;;21.40;99.90;;;;;;4824881;29;20054;-86
2022/07/19 06:43:04;;;;;;;3.70;1.02;;;21.60;99.90;;;;;;4824320;29;20065;-85
2022/07/19 06:45:30;;;;;;;1.55;1.00;;;21.80;99.90;;;;;;4833420;29;20107;-85
2022/07/19 06:47:56;;;;;;;3.72;1.00;;;21.90;99.90;;;;;;4823457;29;20464;-87
2022/07/19 06:50:21;;;;;;;2.08;1.40;;;22.10;99.90;;;;;;4829612;29;20138;-86
2022/07/19 06:52:48;;;;;;;2.55;1.00;;;22.30;99.90;;;;;;4828921;29;20403;-89
2022/07/19 06:55:13;;;;;;;2.20;1.00;;;22.50;99.90;;;;;;4829773;29;20053;-86
2022/07/19 06:57:40;;;;;;;1.27;0.80;;;22.60;99.90;;;;;;4842237;29;20050;-86
2022/07/19 07:00:08;;;;;;;2.25;0.93;;;22.80;99.90;;;;;;4808818;29;20057;-87
2022/07/19 07:02:35;;;;;;;2.15;1.10;;;23.00;99.90;;;;;;4823063;29;20046;-87
2022/07/19 07:05:10;;;;;;;1.80;1.00;;;23.10;99.90;;;;;;4822704;29;20054;-88
2022/07/19 07:07:44;;;;;;;2.20;1.30;;;23.50;99.90;;;;;;4822807;29;20050;-88
2022/07/19 07:10:10;;;;;;;2.75;1.20;;;23.50;99.90;;;;;;4830953;29;20105;-87
2022/07/19 07:24:43;;;;;;;1.83;1.20;;;24.50;99.90;;;;;;5730377;23;20420;-85
2022/07/19 07:27:12;;;;;;;1.95;0.85;;;24.70;99.90;;;;;;4824865;29;20101;-87
2022/07/19 07:29:40;;;;;;;2.75;1.10;;;24.80;99.90;;;;;;4830088;29;20054;-87
2022/07/19 07:32:06;;;;;;;1.73;0.95;;;25.10;99.90;;;;;;4829774;29;20061;-86
2022/07/19 07:34:32;;;;;;;1.67;1.00;;;25.30;99.90;;;;;;4831088;29;20535;-85
2022/07/19 07:37:00;;;;;;;1.77;1.00;;;25.50;99.90;;;;;;4833340;29;20042;-86
2022/07/19 07:39:28;;;;;;;2.05;0.90;;;25.60;99.90;;;;;;4830297;29;20058;-86
2022/07/19 07:41:53;;;;;;;2.00;1.10;;;25.80;99.90;;;;;;4829081;29;20056;-87
2022/07/19 07:44:19;;;;;;;2.42;1.10;;;26.00;99.90;;;;;;4830669;29;20042;-87
2022/07/19 07:46:47;;;;;;;2.25;1.10;;;26.10;99.90;;;;;;4830204;29;20046;-86
2022/07/19 07:49:20;;;;;;;1.70;1.10;;;26.30;99.90;;;;;;4828964;29;20047;-87
2022/07/19 07:54:55;;;;;;;;;;;;;;;;;;;;;
2022/07/19 07:57:21;;;;;;;3.47;0.90;;;26.80;99.90;;;;;;4796283;29;20049;-88
2022/07/19 08:03:48;;;;;;;1.27;0.85;;;27.30;99.90;;;;;;4724305;30;20176;-87
2022/07/19 08:06:15;;;;;;;5.35;1.40;;;27.30;99.90;;;;;;4726396;30;20067;-87
2022/07/19 08:08:41;;;;;;;2.40;1.25;;;27.60;99.90;;;;;;4739298;30;20085;-86
2022/07/19 08:11:07;;;;;;;5.03;1.42;;;27.70;99.90;;;;;;4724071;30;20415;-85
2022/07/19 08:13:33;;;;;;;1.75;0.95;;;27.90;99.90;;;;;;4724764;30;20169;-85
2022/07/19 08:15:58;;;;;;;4.13;1.30;;;28.00;99.90;;;;;;4741457;30;20048;-86
2022/07/19 08:18:24;;;;;;;3.90;1.33;;;28.20;99.90;;;;;;4734214;30;20065;-85
2022/07/19 08:20:50;;;;;;;2.58;1.25;;;28.40;99.90;;;;;;4738679;30;20052;-86
2022/07/19 08:23:15;;;;;;;2.72;0.98;;;28.50;99.90;;;;;;4724062;30;20080;-86
2022/07/19 08:25:41;;;;;;;2.10;1.27;;;28.60;99.90;;;;;;4728221;30;20056;-86
2022/07/19 08:28:07;;;;;;;3.28;1.05;;;28.80;99.90;;;;;;4744792;30;20059;-86
2022/07/19 08:30:33;;;;;;;1.42;0.90;;;28.90;99.90;;;;;;4723943;30;20087;-87
2022/07/19 08:33:00;;;;;;;1.50;0.85;;;29.10;98.90;;;;;;4719407;30;20060;-87
2022/07/19 08:35:26;;;;;;;3.83;1.00;;;29.20;99.90;;;;;;4727413;30;20057;-87
2022/07/19 08:37:52;;;;;;;2.65;1.20;;;29.30;99.80;;;;;;4738746;30;20128;-86
2022/07/19 08:40:32;;;;;;;3.00;1.15;;;29.50;99.20;;;;;;4768380;29;20566;-88
2022/07/19 08:43:04;;;;;;;5.00;1.10;;;29.70;99.20;;;;;;4819889;29;20105;-86
2022/07/19 08:45:31;;;;;;;1.75;1.02;;;29.80;99.40;;;;;;4835553;29;20046;-86
2022/07/19 08:47:57;;;;;;;2.95;1.17;;;30.00;97.80;;;;;;4807470;29;20458;-86
2022/07/19 08:50:25;;;;;;;7.82;1.40;;;30.10;97.50;;;;;;4808515;29;20054;-86
2022/07/19 08:52:51;;;;;;;3.13;1.33;;;30.20;97.30;;;;;;4807162;29;20093;-86
2022/07/19 08:55:17;;;;;;;2.63;0.90;;;30.40;96.90;;;;;;4806887;29;20050;-86
2022/07/19 08:58:00;;;;;;;2.58;1.20;;;30.50;97.60;;;;;;4807315;29;20114;-86
2022/07/19 09:00:27;;;;;;;3.67;1.15;;;30.70;96.10;;;;;;4822036;29;20133;-86
2022/07/19 09:02:56;;;;;;;2.17;1.10;;;30.80;96.40;;;;;;4806928;29;20518;-86
2022/07/19 09:05:22;;;;;;;1.90;0.93;;;30.90;96.10;;;;;;4808226;29;20122;-86
2022/07/19 09:08:06;;;;;;;2.60;1.00;;;31.00;94.80;;;;;;4822141;29;20500;-86
2022/07/19 09:10:33;;;;;;;1.92;1.17;;;31.10;93.80;;;;;;4807160;29;20051;-86
2022/07/19 09:13:12;;;;;;;1.90;0.80;;;31.30;94.00;;;;;;4808163;29;20062;-86
2022/07/19 09:15:50;;;;;;;1.60;0.90;;;31.40;93.40;;;;;;4807975;29;20054;-87
2022/07/19 09:18:26;;;;;;;1.95;0.90;;;31.50;92.80;;;;;;4806650;29;20404;-87
2022/07/19 09:20:54;;;;;;;1.67;0.65;;;31.60;91.80;;;;;;4806924;29;20142;-86
2022/07/19 09:23:21;;;;;;;2.08;0.98;;;31.70;92.10;;;;;;4806639;29;20047;-87
2022/07/19 09:25:57;;;;;;;1.70;1.00;;;31.80;91.00;;;;;;4807641;29;20051;-87
2022/07/19 09:28:25;;;;;;;2.22;1.13;;;31.90;91.60;;;;;;4821641;29;20107;-87
2022/07/19 09:30:56;;;;;;;2.25;0.90;;;32.00;91.50;;;;;;4807872;29;20051;-86
2022/07/19 09:33:24;;;;;;;2.78;1.10;;;32.10;91.00;;;;;;4821523;29;20062;-85
2022/07/19 09:35:56;;;;;;;2.30;0.80;;;32.30;90.60;;;;;;4807505;29;20090;-86
2022/07/19 09:38:27;;;;;;;2.13;1.10;;;32.40;90.10;;;;;;4807704;29;20047;-87
2022/07/19 09:41:11;;;;;;;1.67;0.90;;;32.50;88.80;;;;;;4807527;29;20057;-86
2022/07/19 09:44:00;;;;;;;1.70;0.80;;;32.60;89.40;;;;;;4807540;29;20046;-86
2022/07/19 09:46:42;;;;;;;1.33;0.90;;;32.70;91.00;;;;;;4806423;29;20043;-86
2022/07/19 09:49:12;;;;;;;2.13;1.00;;;32.80;88.50;;;;;;4806686;29;20504;-87
2022/07/19 09:51:43;;;;;;;2.55;0.80;;;33.00;90.20;;;;;;4806314;29;20050;-85
2022/07/19 09:54:11;;;;;;;2.10;0.70;;;33.00;86.80;;;;;;4821347;29;20166;-87
2022/07/19 09:56:39;;;;;;;3.15;0.90;;;33.20;88.30;;;;;;4807293;29;20058;-86
2022/07/19 09:59:06;;;;;;;3.05;0.90;;;33.30;89.80;;;;;;4807676;29;20404;-87
2022/07/19 10:01:33;;;;;;;1.35;0.70;;;33.40;87.70;;;;;;4807425;29;20055;-86
2022/07/19 10:04:05;;;;;;;1.58;0.70;;;33.50;88.10;;;;;;4807182;29;20047;-86
2022/07/19 10:06:32;;;;;;;0.85;0.70;;;33.60;87.20;;;;;;4807364;29;20051;-85
2022/07/19 10:08:58;;;;;;;2.42;0.80;;;33.80;84.20;;;;;;4805763;29;20062;-86
2022/07/19 10:11:25;;;;;;;1.67;0.80;;;33.90;85.20;;;;;;4806898;29;20090;-85
2022/07/19 10:13:50;;;;;;;1.83;0.80;;;34.00;80.40;;;;;;4807158;29;20086;-85
2022/07/19 10:16:22;;;;;;;1.45;0.73;;;34.00;82.70;;;;;;4805992;29;20082;-85
2022/07/19 10:19:22;;;;;;;2.60;0.73;;;34.20;78.90;;;;;;4805585;29;20059;-86
2022/07/19 10:21:48;;;;;;;1.65;0.70;;;34.20;80.50;;;;;;4825047;29;20556;-84
2022/07/19 10:24:14;;;;;;;1.00;0.60;;;34.40;81.80;;;;;;4831634;29;20042;-85
2022/07/19 10:26:42;;;;;;;1.90;0.70;;;34.50;81.40;;;;;;4819755;29;20070;-86
2022/07/19 10:29:19;;;;;;;1.13;0.70;;;34.50;78.90;;;;;;4818269;29;20069;-88
2022/07/19 10:32:06;;;;;;;1.35;0.60;;;34.60;78.70;;;;;;4834220;29;20042;-87
2022/07/19 10:34:35;;;;;;;0.75;0.50;;;34.70;78.30;;;;;;4833812;29;20054;-89
2022/07/19 10:37:01;;;;;;;1.50;0.50;;;34.80;76.30;;;;;;4832438;29;20054;-85
2022/07/19 10:39:38;;;;;;;1.50;0.60;;;34.90;75.50;;;;;;4827840;29;20107;-85
2022/07/19 10:42:17;;;;;;;1.30;0.60;;;34.90;75.80;;;;;;4838404;29;20042;-85
2022/07/19 10:44:59;;;;;;;0.82;0.50;;;35.00;74.20;;;;;;4834370;29;20560;-85
2022/07/19 10:47:31;;;;;;;0.77;0.47;;;35.10;75.00;;;;;;4821947;29;20050;-85
2022/07/19 10:50:03;;;;;;;0.88;0.50;;;35.20;74.50;;;;;;4825431;29;20084;-85
2022/07/19 10:52:29;;;;;;;2.97;0.50;;;35.30;72.70;;;;;;4833599;29;20058;-85
2022/07/19 10:55:25;;;;;;;1.70;0.47;;;35.30;72.20;;;;;;4828087;29;20086;-85
2022/07/19 10:57:53;;;;;;;5.28;0.60;;;35.40;71.00;;;;;;4831178;29;20060;-86
2022/07/19 11:00:26;;;;;;;1.20;0.65;;;35.40;69.20;;;;;;4830961;29;20392;-86
2022/07/19 11:03:12;;;;;;;1.73;0.68;;;35.60;72.90;;;;;;4827271;29;20046;-86
2022/07/19 11:05:46;;;;;;;2.45;0.60;;;35.60;70.70;;;;;;4827791;29;20047;-88
2022/07/19 11:08:12;;;;;;;1.40;0.50;;;35.80;68.70;;;;;;4815895;29;20088;-86
2022/07/19 11:10:38;;;;;;;1.98;0.60;;;35.80;68.10;;;;;;4833520;29;20057;-86
2022/07/19 11:13:03;;;;;;;0.70;0.50;;;35.80;68.30;;;;;;4836041;29;20052;-85
2022/07/19 11:15:29;;;;;;;1.70;0.80;;;35.80;66.80;;;;;;4829619;29;20072;-87
2022/07/19 11:17:59;;;;;;;0.82;0.50;;;36.00;67.80;;;;;;4828373;29;20086;-85
2022/07/19 11:20:31;;;;;;;2.25;0.55;;;36.00;68.80;;;;;;4834366;29;20053;-86
2022/07/19 11:22:59;;;;;;;0.80;0.50;;;36.10;67.40;;;;;;4828440;29;20099;-87
2022/07/19 11:25:33;;;;;;;1.20;0.65;;;36.10;65.80;;;;;;4822408;29;20407;-92
2022/07/19 11:28:00;;;;;;;1.00;0.68;;;36.20;65.60;;;;;;4816544;29;20123;-88
2022/07/19 11:30:28;;;;;;;1.17;0.60;;;36.30;65.10;;;;;;4817389;29;20042;-88
2022/07/19 11:32:59;;;;;;;1.67;0.50;;;36.40;66.00;;;;;;4830965;29;20062;-86
2022/07/19 11:35:26;;;;;;;0.98;0.50;;;36.50;66.30;;;;;;4827414;29;20050;-86
2022/07/19 11:37:56;;;;;;;3.35;0.70;;;36.60;65.10;;;;;;4826071;29;20042;-89
2022/07/19 11:40:23;;;;;;;1.00;0.55;;;36.60;63.70;;;;;;4827868;29;20125;-87
2022/07/19 11:42:50;;;;;;;1.17;0.50;;;36.80;64.60;;;;;;4828114;29;20447;-88
2022/07/19 11:45:22;;;;;;;3.47;0.50;;;36.80;64.50;;;;;;4834894;29;20042;-85
2022/07/19 11:47:52;;;;;;;1.02;0.50;;;36.90;65.70;;;;;;4829197;29;20089;-84
2022/07/19 11:50:21;;;;;;;1.67;0.75;;;36.90;65.60;;;;;;4822427;29;20106;-87
2022/07/19 11:52:51;;;;;;;1.70;0.50;;;37.00;63.70;;;;;;4829701;29;20121;-84
2022/07/19 11:55:21;;;;;;;1.42;0.60;;;37.00;63.70;;;;;;4821306;29;20076;-84
2022/07/19 11:57:48;;;;;;;3.20;0.50;;;37.00;62.30;;;;;;4834106;29;20081;-85
2022/07/19 12:00:16;;;;;;;2.10;0.43;;;37.10;64.00;;;;;;4827058;29;20075;-86
2022/07/19 12:02:58;;;;;;;1.33;0.60;;;37.20;63.70;;;;;;4823822;29;20042;-84
2022/07/19 12:05:28;;;;;;;2.55;0.52;;;37.20;63.30;;;;;;4826526;29;20054;-83
2022/07/19 12:07:58;;;;;;;0.73;0.40;;;37.40;62.00;;;;;;4832325;29;20507;-82
2022/07/19 12:10:33;;;;;;;1.02;0.50;;;37.40;63.00;;;;;;4853517;29;20061;-84
2022/07/19 12:13:00;;;;;;;1.10;0.52;;;37.50;61.20;;;;;;4830275;29;20083;-83
2022/07/19 12:15:26;;;;;;;1.70;0.40;;;37.50;63.10;;;;;;4833211;29;20079;-84
2022/07/19 12:17:59;;;;;;;0.75;0.43;;;37.50;62.00;;;;;;4827757;29;20126;-84
2022/07/19 12:20:25;;;;;;;1.67;0.50;;;37.70;63.10;;;;;;4823137;29;20054;-85
2022/07/19 12:22:52;;;;;;;2.55;0.57;;;37.70;60.90;;;;;;4831194;29;20138;-85
2022/07/19 12:25:36;;;;;;;0.75;0.40;;;37.80;60.10;;;;;;4844663;29;20054;-86
2022/07/19 12:28:02;;;;;;;1.48;0.60;;;38.00;61.70;;;;;;4826730;29;20488;-85
2022/07/19 12:30:29;;;;;;;0.57;0.38;;;38.10;61.20;;;;;;4810397;29;20133;-84
2022/07/19 12:33:06;;;;;;;0.60;0.40;;;38.00;59.90;;;;;;4830316;29;20515;-85
2022/07/19 12:35:47;;;;;;;1.50;0.40;;;38.10;60.20;;;;;;4826824;29;20507;-83
2022/07/19 12:38:14;;;;;;;1.85;0.47;;;38.10;58.90;;;;;;4828661;29;20048;-86
2022/07/19 12:40:42;;;;;;;0.43;0.40;;;38.20;60.00;;;;;;4827913;29;20432;-83
2022/07/19 12:43:12;;;;;;;1.02;0.40;;;38.20;56.10;;;;;;4835397;29;20396;-83
2022/07/19 12:45:43;;;;;;;2.97;0.65;;;38.20;56.90;;;;;;4832496;29;20483;-84
2022/07/19 12:48:11;;;;;;;0.45;0.30;;;38.30;58.80;;;;;;4822575;29;20579;-83
2022/07/19 12:50:42;;;;;;;0.57;0.40;;;38.30;57.50;;;;;;4829501;29;20054;-85
2022/07/19 12:53:10;;;;;;;2.05;0.40;;;38.30;57.50;;;;;;4833017;29;20042;-85
2022/07/19 12:55:38;;;;;;;1.15;0.50;;;38.40;58.00;;;;;;4828667;29;20054;-85
2022/07/19 12:58:05;;;;;;;2.75;0.43;;;38.50;57.30;;;;;;4834407;29;20411;-87
2022/07/19 13:00:32;;;;;;;2.53;0.43;;;38.50;57.50;;;;;;4828787;29;20075;-86
2022/07/19 13:02:59;;;;;;;1.05;0.47;;;38.50;55.50;;;;;;4826318;29;20503;-89
2022/07/19 13:05:26;;;;;;;1.63;0.50;;;38.50;55.10;;;;;;4816999;29;20502;-87
2022/07/19 13:07:52;;;;;;;0.70;0.40;;;38.60;57.50;;;;;;4817480;29;20055;-90
2022/07/19 13:10:18;;;;;;;2.08;0.50;;;38.60;55.10;;;;;;4821185;29;20049;-89